sensor_id;sensor_type;location;lat;lon;timestamp;pressure;altitude;pressure_sealevel;temperature;humidity
74578;BME280;63173;49.086;33.418;2023-08-01T00:02:24;99962.81;;;33.38;46.55
74578;BME280;63173;49.086;33.418;2023-08-01T00:04:49;99958.78;;;33.77;46.13
74578;BME280;63173;49.086;33.418;2023-08-01T00:07:15;99959.78;;;33.45;46.18
74578;BME280;63173;49.086;33.418;2023-08-01T00:09:40;99955.94;;;33.14;47.55
74578;BME280;63173;49.086;33.418;2023-08-01T00:12:05;99961.94;;;33.79;46.57
74578;BME280;63173;49.086;33.418;2023-08-01T00:14:31;99951.91;;;34.03;44.81
74578;BME280;63173;49.086;33.418;2023-08-01T00:16:56;99959.84;;;34.30;45.46
74578;BME280;63173;49.086;33.418;2023-08-01T00:19:22;99958.13;;;33.98;45.11
74578;BME280;63173;49.086;33.418;2023-08-01T00:21:47;99950.00;;;33.87;45.83
74578;BME280;63173;49.086;33.418;2023-08-01T00:24:12;99949.75;;;34.07;45.67
74578;BME280;63173;49.086;33.418;2023-08-01T00:26:38;99947.81;;;33.16;48.07
74578;BME280;63173;49.086;33.418;2023-08-01T00:29:03;99954.41;;;33.51;46.89
74578;BME280;63173;49.086;33.418;2023-08-01T00:31:29;99953.25;;;33.48;47.03
74578;BME280;63173;49.086;33.418;2023-08-01T00:33:54;99948.13;;;32.77;48.83
74578;BME280;63173;49.086;33.418;2023-08-01T00:36:20;99945.91;;;32.84;48.78
74578;BME280;63173;49.086;33.418;2023-08-01T00:38:45;99950.75;;;33.25;47.83
74578;BME280;63173;49.086;33.418;2023-08-01T00:41:10;99944.75;;;33.10;48.75
74578;BME280;63173;49.086;33.418;2023-08-01T00:43:36;99952.13;;;32.63;48.99
74578;BME280;63173;49.086;33.418;2023-08-01T00:46:04;99954.81;;;31.90;52.69
74578;BME280;63173;49.086;33.418;2023-08-01T00:48:30;99948.22;;;33.68;47.24
74578;BME280;63173;49.086;33.418;2023-08-01T00:50:57;99949.69;;;33.48;47.13
74578;BME280;63173;49.086;33.418;2023-08-01T00:53:24;99951.47;;;33.54;46.09
74578;BME280;63173;49.086;33.418;2023-08-01T00:55:51;99951.09;;;33.40;46.75
74578;BME280;63173;49.086;33.418;2023-08-01T00:58:18;99953.31;;;32.33;49.15
74578;BME280;63173;49.086;33.418;2023-08-01T01:00:44;99940.84;;;32.79;48.89
74578;BME280;63173;49.086;33.418;2023-08-01T01:03:09;99946.00;;;32.97;48.06
74578;BME280;63173;49.086;33.418;2023-08-01T01:05:36;99942.88;;;33.45;47.43
74578;BME280;63173;49.086;33.418;2023-08-01T01:08:04;99954.84;;;33.87;44.93
74578;BME280;63173;49.086;33.418;2023-08-01T01:10:30;99956.28;;;33.41;46.06
74578;BME280;63173;49.086;33.418;2023-08-01T01:12:56;99950.91;;;32.93;47.53
74578;BME280;63173;49.086;33.418;2023-08-01T01:15:22;99950.81;;;32.96;46.57
74578;BME280;63173;49.086;33.418;2023-08-01T01:17:47;99957.50;;;33.15;46.53
74578;BME280;63173;49.086;33.418;2023-08-01T01:20:13;99950.50;;;33.07;46.76
74578;BME280;63173;49.086;33.418;2023-08-01T01:22:38;99944.28;;;32.71;47.20
74578;BME280;63173;49.086;33.418;2023-08-01T01:25:06;99948.94;;;33.06;46.35
74578;BME280;63173;49.086;33.418;2023-08-01T01:27:33;99948.94;;;33.06;46.75
74578;BME280;63173;49.086;33.418;2023-08-01T01:30:00;99939.34;;;33.03;47.31
74578;BME280;63173;49.086;33.418;2023-08-01T01:32:27;99948.47;;;33.07;47.86
74578;BME280;63173;49.086;33.418;2023-08-01T01:34:53;99945.19;;;32.96;47.81
74578;BME280;63173;49.086;33.418;2023-08-01T01:37:18;99944.34;;;32.83;48.13
74578;BME280;63173;49.086;33.418;2023-08-01T01:39:44;99944.47;;;32.19;49.09
74578;BME280;63173;49.086;33.418;2023-08-01T01:42:09;99942.19;;;32.30;49.30
74578;BME280;63173;49.086;33.418;2023-08-01T01:44:35;99936.25;;;32.57;48.57
74578;BME280;63173;49.086;33.418;2023-08-01T01:47:00;99942.88;;;32.91;48.14
74578;BME280;63173;49.086;33.418;2023-08-01T01:49:26;99938.38;;;32.81;47.64
74578;BME280;63173;49.086;33.418;2023-08-01T01:51:51;99929.00;;;32.72;48.66
74578;BME280;63173;49.086;33.418;2023-08-01T01:54:17;99941.81;;;32.73;48.02
74578;BME280;63173;49.086;33.418;2023-08-01T01:56:42;99937.91;;;31.93;50.94
74578;BME280;63173;49.086;33.418;2023-08-01T01:59:07;99940.28;;;32.11;49.55
74578;BME280;63173;49.086;33.418;2023-08-01T02:01:33;99934.09;;;32.16;50.53
74578;BME280;63173;49.086;33.418;2023-08-01T02:03:58;99933.25;;;32.64;49.41
74578;BME280;63173;49.086;33.418;2023-08-01T02:06:24;99929.44;;;32.70;48.98
74578;BME280;63173;49.086;33.418;2023-08-01T02:08:49;99929.34;;;32.45;49.88
74578;BME280;63173;49.086;33.418;2023-08-01T02:11:15;99925.94;;;32.95;48.14
74578;BME280;63173;49.086;33.418;2023-08-01T02:13:40;99930.34;;;32.06;50.94
74578;BME280;63173;49.086;33.418;2023-08-01T02:16:05;99930.38;;;31.90;50.63
74578;BME280;63173;49.086;33.418;2023-08-01T02:18:31;99937.03;;;31.28;52.82
74578;BME280;63173;49.086;33.418;2023-08-01T02:20:56;99937.81;;;32.13;51.34
74578;BME280;63173;49.086;33.418;2023-08-01T02:23:22;99940.44;;;31.72;50.59
74578;BME280;63173;49.086;33.418;2023-08-01T02:25:47;99935.25;;;31.54;50.98
74578;BME280;63173;49.086;33.418;2023-08-01T02:28:13;99945.34;;;32.32;49.47
74578;BME280;63173;49.086;33.418;2023-08-01T02:30:38;99943.56;;;31.58;52.98
74578;BME280;63173;49.086;33.418;2023-08-01T02:33:04;99943.44;;;32.13;50.23
74578;BME280;63173;49.086;33.418;2023-08-01T02:35:29;99939.97;;;32.37;48.28
74578;BME280;63173;49.086;33.418;2023-08-01T02:37:55;99941.22;;;32.94;47.17
74578;BME280;63173;49.086;33.418;2023-08-01T02:40:21;99937.56;;;32.07;49.80
74578;BME280;63173;49.086;33.418;2023-08-01T02:42:46;99939.88;;;32.41;49.04
74578;BME280;63173;49.086;33.418;2023-08-01T02:45:12;99942.38;;;32.23;49.00
74578;BME280;63173;49.086;33.418;2023-08-01T02:47:37;99939.56;;;31.75;51.61
74578;BME280;63173;49.086;33.418;2023-08-01T02:50:03;99944.53;;;32.31;48.94
74578;BME280;63173;49.086;33.418;2023-08-01T02:52:28;99951.94;;;31.93;49.89
74578;BME280;63173;49.086;33.418;2023-08-01T02:54:54;99945.38;;;32.61;47.64
74578;BME280;63173;49.086;33.418;2023-08-01T02:57:19;99954.56;;;33.06;47.16
74578;BME280;63173;49.086;33.418;2023-08-01T02:59:45;99947.31;;;33.46;46.25
74578;BME280;63173;49.086;33.418;2023-08-01T03:02:10;99952.22;;;33.17;47.48
74578;BME280;63173;49.086;33.418;2023-08-01T03:04:36;99947.78;;;32.75;47.75
74578;BME280;63173;49.086;33.418;2023-08-01T03:07:01;99944.38;;;32.67;48.39
74578;BME280;63173;49.086;33.418;2023-08-01T03:09:27;99938.59;;;32.13;49.60
74578;BME280;63173;49.086;33.418;2023-08-01T03:11:52;99948.97;;;32.61;47.72
74578;BME280;63173;49.086;33.418;2023-08-01T03:14:17;99949.22;;;32.67;48.47
74578;BME280;63173;49.086;33.418;2023-08-01T03:16:43;99945.53;;;32.25;48.23
74578;BME280;63173;49.086;33.418;2023-08-01T03:19:08;99943.69;;;32.63;49.38
74578;BME280;63173;49.086;33.418;2023-08-01T03:21:34;99952.22;;;33.29;47.30
74578;BME280;63173;49.086;33.418;2023-08-01T03:24:01;99951.19;;;32.82;47.36
74578;BME280;63173;49.086;33.418;2023-08-01T03:26:26;99946.81;;;32.36;48.33
74578;BME280;63173;49.086;33.418;2023-08-01T03:28:55;99957.19;;;32.39;50.71
74578;BME280;63173;49.086;33.418;2023-08-01T03:31:22;99951.59;;;33.51;46.81
74578;BME280;63173;49.086;33.418;2023-08-01T03:33:47;99957.41;;;32.90;48.60
74578;BME280;63173;49.086;33.418;2023-08-01T03:36:12;99957.16;;;33.25;47.44
74578;BME280;63173;49.086;33.418;2023-08-01T03:38:38;99958.75;;;33.39;46.21
74578;BME280;63173;49.086;33.418;2023-08-01T03:41:04;99953.22;;;32.82;46.95
74578;BME280;63173;49.086;33.418;2023-08-01T03:43:29;99954.59;;;32.90;48.24
74578;BME280;63173;49.086;33.418;2023-08-01T03:45:55;99961.25;;;32.67;47.88
74578;BME280;63173;49.086;33.418;2023-08-01T03:48:20;99956.91;;;32.79;47.25
74578;BME280;63173;49.086;33.418;2023-08-01T03:50:46;99962.09;;;32.35;48.15
74578;BME280;63173;49.086;33.418;2023-08-01T03:53:11;99958.16;;;32.49;48.74
74578;BME280;63173;49.086;33.418;2023-08-01T03:55:37;99960.66;;;32.88;47.59
74578;BME280;63173;49.086;33.418;2023-08-01T03:58:02;99963.22;;;32.54;48.36
74578;BME280;63173;49.086;33.418;2023-08-01T04:00:28;99962.78;;;32.84;47.46
74578;BME280;63173;49.086;33.418;2023-08-01T04:02:58;99962.34;;;32.86;47.60
74578;BME280;63173;49.086;33.418;2023-08-01T04:05:23;99965.28;;;32.37;49.86
74578;BME280;63173;49.086;33.418;2023-08-01T04:07:49;99968.88;;;32.38;49.93
74578;BME280;63173;49.086;33.418;2023-08-01T04:10:15;99967.75;;;32.03;51.00
74578;BME280;63173;49.086;33.418;2023-08-01T04:12:40;99966.06;;;33.24;47.31
74578;BME280;63173;49.086;33.418;2023-08-01T04:15:08;99968.91;;;32.95;47.90
74578;BME280;63173;49.086;33.418;2023-08-01T04:17:33;99964.28;;;32.89;47.23
74578;BME280;63173;49.086;33.418;2023-08-01T04:19:59;99967.66;;;32.07;49.40
74578;BME280;63173;49.086;33.418;2023-08-01T04:22:24;99967.19;;;32.57;48.83
74578;BME280;63173;49.086;33.418;2023-08-01T04:24:50;99969.03;;;32.31;48.52
74578;BME280;63173;49.086;33.418;2023-08-01T04:27:16;99976.72;;;33.04;46.53
74578;BME280;63173;49.086;33.418;2023-08-01T04:29:41;99977.19;;;33.02;47.29
74578;BME280;63173;49.086;33.418;2023-08-01T04:32:07;99974.16;;;33.22;46.06
74578;BME280;63173;49.086;33.418;2023-08-01T04:34:33;99982.34;;;33.04;47.86
74578;BME280;63173;49.086;33.418;2023-08-01T04:36:58;99985.63;;;33.02;47.32
74578;BME280;63173;49.086;33.418;2023-08-01T04:39:23;99977.91;;;33.32;46.69
74578;BME280;63173;49.086;33.418;2023-08-01T04:41:49;99974.94;;;32.81;47.99
74578;BME280;63173;49.086;33.418;2023-08-01T04:44:15;99970.41;;;33.66;46.30
74578;BME280;63173;49.086;33.418;2023-08-01T04:46:40;99977.06;;;33.06;48.39
74578;BME280;63173;49.086;33.418;2023-08-01T04:49:06;99987.03;;;33.36;47.47
74578;BME280;63173;49.086;33.418;2023-08-01T04:51:31;99985.13;;;33.45;45.85
74578;BME280;63173;49.086;33.418;2023-08-01T04:53:57;99984.72;;;33.18;46.86
74578;BME280;63173;49.086;33.418;2023-08-01T04:56:22;99987.25;;;33.41;46.64
74578;BME280;63173;49.086;33.418;2023-08-01T04:58:48;99992.06;;;33.82;46.66
74578;BME280;63173;49.086;33.418;2023-08-01T05:01:13;99994.84;;;34.20;44.32
74578;BME280;63173;49.086;33.418;2023-08-01T05:03:38;99998.63;;;33.25;47.86
74578;BME280;63173;49.086;33.418;2023-08-01T05:06:04;99996.44;;;33.16;47.67
74578;BME280;63173;49.086;33.418;2023-08-01T05:08:29;99991.44;;;34.93;44.51
74578;BME280;63173;49.086;33.418;2023-08-01T05:10:55;99993.59;;;34.67;43.47
74578;BME280;63173;49.086;33.418;2023-08-01T05:13:20;99987.56;;;34.78;44.91
74578;BME280;63173;49.086;33.418;2023-08-01T05:15:46;99980.47;;;35.60;43.07
74578;BME280;63173;49.086;33.418;2023-08-01T05:18:18;99985.44;;;35.47;42.59
74578;BME280;63173;49.086;33.418;2023-08-01T05:20:43;99991.22;;;35.00;43.66
74578;BME280;63173;49.086;33.418;2023-08-01T05:23:09;99984.81;;;33.81;46.32
74578;BME280;63173;49.086;33.418;2023-08-01T05:25:34;99986.66;;;34.81;44.38
74578;BME280;63173;49.086;33.418;2023-08-01T05:27:59;99989.94;;;35.23;44.10
74578;BME280;63173;49.086;33.418;2023-08-01T05:30:25;99980.31;;;35.11;43.22
74578;BME280;63173;49.086;33.418;2023-08-01T05:32:50;99984.91;;;34.96;43.69
74578;BME280;63173;49.086;33.418;2023-08-01T05:35:16;99986.97;;;33.52;47.37
74578;BME280;63173;49.086;33.418;2023-08-01T05:37:42;99986.19;;;34.61;45.17
74578;BME280;63173;49.086;33.418;2023-08-01T05:40:08;99985.69;;;35.18;42.68
74578;BME280;63173;49.086;33.418;2023-08-01T05:42:34;99979.09;;;35.43;43.79
74578;BME280;63173;49.086;33.418;2023-08-01T05:44:59;99993.34;;;33.27;47.69
74578;BME280;63173;49.086;33.418;2023-08-01T05:47:25;99982.59;;;35.47;42.67
74578;BME280;63173;49.086;33.418;2023-08-01T05:49:50;99991.88;;;34.36;44.21
74578;BME280;63173;49.086;33.418;2023-08-01T05:52:16;99980.34;;;35.72;41.57
74578;BME280;63173;49.086;33.418;2023-08-01T05:54:41;99987.31;;;35.28;42.00
74578;BME280;63173;49.086;33.418;2023-08-01T05:57:07;99988.06;;;33.92;45.41
74578;BME280;63173;49.086;33.418;2023-08-01T05:59:33;99987.38;;;35.68;41.98
74578;BME280;63173;49.086;33.418;2023-08-01T06:01:58;99996.78;;;32.61;49.39
74578;BME280;63173;49.086;33.418;2023-08-01T06:04:24;99992.72;;;32.17;50.57
74578;BME280;63173;49.086;33.418;2023-08-01T06:06:49;99999.19;;;33.33;48.24
74578;BME280;63173;49.086;33.418;2023-08-01T06:09:14;99985.56;;;34.32;45.87
74578;BME280;63173;49.086;33.418;2023-08-01T06:11:40;99986.53;;;35.49;43.39
74578;BME280;63173;49.086;33.418;2023-08-01T06:14:05;99992.41;;;34.43;45.22
74578;BME280;63173;49.086;33.418;2023-08-01T06:16:31;99989.38;;;34.38;44.90
74578;BME280;63173;49.086;33.418;2023-08-01T06:18:56;99983.38;;;36.36;40.48
74578;BME280;63173;49.086;33.418;2023-08-01T06:21:22;99982.31;;;36.69;40.06
74578;BME280;63173;49.086;33.418;2023-08-01T06:23:47;99986.16;;;36.18;40.37
74578;BME280;63173;49.086;33.418;2023-08-01T06:26:13;99993.63;;;35.54;42.13
74578;BME280;63173;49.086;33.418;2023-08-01T06:28:40;99980.25;;;36.61;40.42
74578;BME280;63173;49.086;33.418;2023-08-01T06:31:06;99986.53;;;36.74;40.09
74578;BME280;63173;49.086;33.418;2023-08-01T06:33:31;99995.31;;;35.51;42.81
74578;BME280;63173;49.086;33.418;2023-08-01T06:35:57;99993.44;;;37.36;38.81
74578;BME280;63173;49.086;33.418;2023-08-01T06:38:22;99989.09;;;36.81;39.99
74578;BME280;63173;49.086;33.418;2023-08-01T06:40:47;99987.75;;;36.28;41.01
74578;BME280;63173;49.086;33.418;2023-08-01T06:43:13;99993.34;;;36.86;40.03
74578;BME280;63173;49.086;33.418;2023-08-01T06:45:38;99998.09;;;35.73;40.57
74578;BME280;63173;49.086;33.418;2023-08-01T06:48:04;99996.34;;;37.00;39.34
74578;BME280;63173;49.086;33.418;2023-08-01T06:50:29;99997.34;;;37.48;38.23
74578;BME280;63173;49.086;33.418;2023-08-01T06:52:55;99997.28;;;36.88;39.06
74578;BME280;63173;49.086;33.418;2023-08-01T06:55:20;99998.63;;;37.20;38.20
74578;BME280;63173;49.086;33.418;2023-08-01T06:57:45;99999.00;;;35.39;41.43
74578;BME280;63173;49.086;33.418;2023-08-01T07:00:11;100000.09;;;37.15;38.57
74578;BME280;63173;49.086;33.418;2023-08-01T07:02:37;99996.78;;;36.80;39.79
74578;BME280;63173;49.086;33.418;2023-08-01T07:05:02;100000.38;;;36.72;39.77
74578;BME280;63173;49.086;33.418;2023-08-01T07:07:28;99999.56;;;35.47;41.89
74578;BME280;63173;49.086;33.418;2023-08-01T07:09:53;99994.63;;;36.09;41.48
74578;BME280;63173;49.086;33.418;2023-08-01T07:12:18;99998.63;;;38.12;37.41
74578;BME280;63173;49.086;33.418;2023-08-01T07:14:44;100000.34;;;37.44;38.64
74578;BME280;63173;49.086;33.418;2023-08-01T07:17:09;100002.53;;;37.91;37.39
74578;BME280;63173;49.086;33.418;2023-08-01T07:19:35;100006.75;;;37.54;37.98
74578;BME280;63173;49.086;33.418;2023-08-01T07:22:00;100012.00;;;37.19;39.16
74578;BME280;63173;49.086;33.418;2023-08-01T07:24:25;100006.56;;;37.76;37.62
74578;BME280;63173;49.086;33.418;2023-08-01T07:26:51;100018.28;;;37.23;38.05
74578;BME280;63173;49.086;33.418;2023-08-01T07:29:16;100014.09;;;36.92;38.91
74578;BME280;63173;49.086;33.418;2023-08-01T07:31:42;100013.63;;;37.80;37.24
74578;BME280;63173;49.086;33.418;2023-08-01T07:34:08;100022.22;;;38.75;35.53
74578;BME280;63173;49.086;33.418;2023-08-01T07:36:33;100023.97;;;37.14;38.09
74578;BME280;63173;49.086;33.418;2023-08-01T07:38:59;100020.69;;;37.85;35.80
74578;BME280;63173;49.086;33.418;2023-08-01T07:41:24;100019.19;;;38.31;35.13
74578;BME280;63173;49.086;33.418;2023-08-01T07:43:49;100014.25;;;36.97;33.32
74578;BME280;63173;49.086;33.418;2023-08-01T07:46:15;100019.13;;;36.12;36.56
74578;BME280;63173;49.086;33.418;2023-08-01T07:48:40;100014.59;;;37.59;33.78
74578;BME280;63173;49.086;33.418;2023-08-01T07:51:06;100014.50;;;37.95;32.69
74578;BME280;63173;49.086;33.418;2023-08-01T07:53:33;100015.81;;;39.03;31.60
74578;BME280;63173;49.086;33.418;2023-08-01T07:55:59;100013.84;;;38.56;31.53
74578;BME280;63173;49.086;33.418;2023-08-01T07:58:27;100020.91;;;38.37;31.46
74578;BME280;63173;49.086;33.418;2023-08-01T08:00:53;100010.41;;;37.96;31.27
74578;BME280;63173;49.086;33.418;2023-08-01T08:03:18;100010.66;;;38.07;32.36
74578;BME280;63173;49.086;33.418;2023-08-01T08:05:44;100015.06;;;38.65;31.77
74578;BME280;63173;49.086;33.418;2023-08-01T08:08:10;100014.78;;;39.30;30.69
74578;BME280;63173;49.086;33.418;2023-08-01T08:10:35;100018.16;;;39.58;30.02
74578;BME280;63173;49.086;33.418;2023-08-01T08:13:01;100016.13;;;39.05;30.88
74578;BME280;63173;49.086;33.418;2023-08-01T08:15:26;100013.63;;;37.11;33.65
74578;BME280;63173;49.086;33.418;2023-08-01T08:17:52;100004.63;;;39.23;31.24
74578;BME280;63173;49.086;33.418;2023-08-01T08:20:17;100003.06;;;40.35;29.25
74578;BME280;63173;49.086;33.418;2023-08-01T08:22:43;100005.75;;;39.02;29.79
74578;BME280;63173;49.086;33.418;2023-08-01T08:25:08;100006.47;;;39.12;30.29
74578;BME280;63173;49.086;33.418;2023-08-01T08:27:34;99996.47;;;39.31;30.31
74578;BME280;63173;49.086;33.418;2023-08-01T08:29:59;99996.94;;;39.29;29.78
74578;BME280;63173;49.086;33.418;2023-08-01T08:32:25;99988.81;;;40.15;28.80
74578;BME280;63173;49.086;33.418;2023-08-01T08:34:50;99992.38;;;39.17;30.22
74578;BME280;63173;49.086;33.418;2023-08-01T08:37:16;99982.75;;;39.29;30.06
74578;BME280;63173;49.086;33.418;2023-08-01T08:39:41;99986.75;;;39.37;29.66
74578;BME280;63173;49.086;33.418;2023-08-01T08:42:07;99983.50;;;40.83;27.83
74578;BME280;63173;49.086;33.418;2023-08-01T08:44:35;99981.28;;;39.63;29.64
74578;BME280;63173;49.086;33.418;2023-08-01T08:47:07;99982.31;;;38.54;30.85
74578;BME280;63173;49.086;33.418;2023-08-01T08:49:36;99972.63;;;38.85;30.17
74578;BME280;63173;49.086;33.418;2023-08-01T08:52:02;99976.84;;;36.84;33.11
74578;BME280;63173;49.086;33.418;2023-08-01T08:54:28;99970.66;;;38.76;30.03
74578;BME280;63173;49.086;33.418;2023-08-01T08:56:55;99980.63;;;38.48;31.00
74578;BME280;63173;49.086;33.418;2023-08-01T08:59:21;99959.34;;;39.98;28.61
74578;BME280;63173;49.086;33.418;2023-08-01T09:01:46;99968.91;;;40.35;28.84
74578;BME280;63173;49.086;33.418;2023-08-01T09:04:12;99963.56;;;41.35;26.64
74578;BME280;63173;49.086;33.418;2023-08-01T09:06:43;99959.66;;;41.06;26.33
74578;BME280;63173;49.086;33.418;2023-08-01T09:09:11;99959.31;;;40.33;27.41
74578;BME280;63173;49.086;33.418;2023-08-01T09:11:50;99961.72;;;39.85;28.16
74578;BME280;63173;49.086;33.418;2023-08-01T09:14:17;99961.38;;;41.18;26.29
74578;BME280;63173;49.086;33.418;2023-08-01T09:16:43;99954.59;;;40.70;27.72
74578;BME280;63173;49.086;33.418;2023-08-01T09:19:09;99959.03;;;41.85;25.87
74578;BME280;63173;49.086;33.418;2023-08-01T09:21:38;99949.13;;;40.47;28.08
74578;BME280;63173;49.086;33.418;2023-08-01T09:24:11;99939.56;;;40.90;27.56
74578;BME280;63173;49.086;33.418;2023-08-01T09:26:37;99942.47;;;41.94;25.56
74578;BME280;63173;49.086;33.418;2023-08-01T09:29:02;99938.34;;;41.59;25.67
74578;BME280;63173;49.086;33.418;2023-08-01T09:31:29;99937.03;;;39.77;28.19
74578;BME280;63173;49.086;33.418;2023-08-01T09:33:55;99931.97;;;40.21;27.38
74578;BME280;63173;49.086;33.418;2023-08-01T09:36:21;99926.25;;;40.81;26.06
74578;BME280;63173;49.086;33.418;2023-08-01T09:38:47;99928.22;;;40.75;25.48
74578;BME280;63173;49.086;33.418;2023-08-01T09:41:19;99926.50;;;40.38;26.20
74578;BME280;63173;49.086;33.418;2023-08-01T09:43:46;99933.91;;;40.75;25.26
74578;BME280;63173;49.086;33.418;2023-08-01T09:46:12;99935.94;;;39.25;27.09
74578;BME280;63173;49.086;33.418;2023-08-01T09:48:38;99918.78;;;41.77;24.09
74578;BME280;63173;49.086;33.418;2023-08-01T09:51:14;99924.38;;;41.97;23.39
74578;BME280;63173;49.086;33.418;2023-08-01T09:53:55;99925.38;;;41.58;24.94
74578;BME280;63173;49.086;33.418;2023-08-01T09:56:23;99918.59;;;41.86;24.17
74578;BME280;63173;49.086;33.418;2023-08-01T09:58:51;99920.88;;;41.77;24.08
74578;BME280;63173;49.086;33.418;2023-08-01T10:01:17;99914.50;;;41.56;24.54
74578;BME280;63173;49.086;33.418;2023-08-01T10:03:49;99905.56;;;41.74;24.13
74578;BME280;63173;49.086;33.418;2023-08-01T10:06:21;99899.66;;;41.47;24.57
74578;BME280;63173;49.086;33.418;2023-08-01T10:08:48;99891.75;;;41.62;25.25
74578;BME280;63173;49.086;33.418;2023-08-01T10:11:16;99898.47;;;40.76;25.72
74578;BME280;63173;49.086;33.418;2023-08-01T10:13:43;99895.91;;;41.30;24.91
74578;BME280;63173;49.086;33.418;2023-08-01T10:16:10;99896.25;;;42.33;23.79
74578;BME280;63173;49.086;33.418;2023-08-01T10:18:37;99893.38;;;40.60;25.35
74578;BME280;63173;49.086;33.418;2023-08-01T10:21:05;99889.00;;;41.84;24.94
74578;BME280;63173;49.086;33.418;2023-08-01T10:23:32;99883.38;;;40.24;26.76
74578;BME280;63173;49.086;33.418;2023-08-01T10:25:58;99884.53;;;41.72;25.09
74578;BME280;63173;49.086;33.418;2023-08-01T10:28:34;99888.94;;;41.05;25.65
74578;BME280;63173;49.086;33.418;2023-08-01T10:31:14;99887.81;;;42.66;23.66
74578;BME280;63173;49.086;33.418;2023-08-01T10:33:47;99879.66;;;40.59;25.57
74578;BME280;63173;49.086;33.418;2023-08-01T10:38:49;99886.22;;;42.59;23.25
74578;BME280;63173;49.086;33.418;2023-08-01T10:41:27;99875.94;;;43.23;22.88
74578;BME280;63173;49.086;33.418;2023-08-01T10:44:12;99876.38;;;42.66;22.79
74578;BME280;63173;49.086;33.418;2023-08-01T10:46:49;99875.63;;;43.59;22.44
74578;BME280;63173;49.086;33.418;2023-08-01T10:49:15;99865.88;;;41.71;23.26
74578;BME280;63173;49.086;33.418;2023-08-01T10:51:41;99870.38;;;42.47;22.55
74578;BME280;63173;49.086;33.418;2023-08-01T10:54:08;99869.59;;;42.41;23.27
74578;BME280;63173;49.086;33.418;2023-08-01T10:56:45;99870.78;;;42.18;23.44
74578;BME280;63173;49.086;33.418;2023-08-01T10:59:13;99880.03;;;42.02;23.46
74578;BME280;63173;49.086;33.418;2023-08-01T11:01:49;99865.09;;;40.77;24.78
74578;BME280;63173;49.086;33.418;2023-08-01T11:06:48;99849.16;;;39.79;26.13
74578;BME280;63173;49.086;33.418;2023-08-01T11:09:19;99849.75;;;42.21;23.50
74578;BME280;63173;49.086;33.418;2023-08-01T11:11:46;99851.69;;;42.68;22.90
74578;BME280;63173;49.086;33.418;2023-08-01T11:14:13;99852.03;;;42.92;22.57
74578;BME280;63173;49.086;33.418;2023-08-01T11:16:39;99848.09;;;43.07;23.03
74578;BME280;63173;49.086;33.418;2023-08-01T11:21:45;99852.53;;;42.96;22.88
74578;BME280;63173;49.086;33.418;2023-08-01T11:24:10;99841.38;;;43.15;22.79
74578;BME280;63173;49.086;33.418;2023-08-01T11:26:40;99838.75;;;42.95;23.19
74578;BME280;63173;49.086;33.418;2023-08-01T11:29:06;99840.38;;;44.09;21.95
74578;BME280;63173;49.086;33.418;2023-08-01T11:31:31;99842.63;;;43.64;22.68
74578;BME280;63173;49.086;33.418;2023-08-01T11:33:57;99841.50;;;43.78;22.63
74578;BME280;63173;49.086;33.418;2023-08-01T11:36:27;99840.66;;;44.05;22.40
74578;BME280;63173;49.086;33.418;2023-08-01T11:38:56;99839.69;;;42.37;24.05
74578;BME280;63173;49.086;33.418;2023-08-01T11:41:23;99833.03;;;42.95;23.56
74578;BME280;63173;49.086;33.418;2023-08-01T11:43:49;99833.28;;;43.47;23.17
74578;BME280;63173;49.086;33.418;2023-08-01T11:46:15;99837.47;;;43.29;23.40
74578;BME280;63173;49.086;33.418;2023-08-01T11:48:45;99841.47;;;44.46;22.52
74578;BME280;63173;49.086;33.418;2023-08-01T11:51:12;99840.31;;;43.18;23.07
74578;BME280;63173;49.086;33.418;2023-08-01T11:53:37;99833.31;;;42.80;23.94
74578;BME280;63173;49.086;33.418;2023-08-01T11:56:04;99830.72;;;42.99;23.56
74578;BME280;63173;49.086;33.418;2023-08-01T11:58:39;99829.44;;;43.00;24.22
74578;BME280;63173;49.086;33.418;2023-08-01T12:01:08;99832.06;;;42.06;24.86
74578;BME280;63173;49.086;33.418;2023-08-01T12:06:13;99832.75;;;42.54;24.22
74578;BME280;63173;49.086;33.418;2023-08-01T12:08:40;99828.34;;;42.70;24.06
74578;BME280;63173;49.086;33.418;2023-08-01T12:11:06;99829.69;;;43.08;23.60
74578;BME280;63173;49.086;33.418;2023-08-01T12:13:42;99818.91;;;43.69;22.89
74578;BME280;63173;49.086;33.418;2023-08-01T12:16:07;99819.38;;;43.84;22.47
74578;BME280;63173;49.086;33.418;2023-08-01T12:18:33;99820.38;;;43.92;22.15
74578;BME280;63173;49.086;33.418;2023-08-01T12:20:58;99824.72;;;43.08;23.55
74578;BME280;63173;49.086;33.418;2023-08-01T12:23:23;99821.63;;;43.17;23.82
74578;BME280;63173;49.086;33.418;2023-08-01T12:25:49;99819.16;;;42.27;25.06
74578;BME280;63173;49.086;33.418;2023-08-01T12:28:15;99815.75;;;43.78;23.31
74578;BME280;63173;49.086;33.418;2023-08-01T12:30:41;99815.91;;;43.12;24.41
74578;BME280;63173;49.086;33.418;2023-08-01T12:33:08;99818.72;;;42.45;24.78
74578;BME280;63173;49.086;33.418;2023-08-01T12:35:34;99808.31;;;44.21;22.94
74578;BME280;63173;49.086;33.418;2023-08-01T12:37:59;99817.44;;;43.13;24.00
74578;BME280;63173;49.086;33.418;2023-08-01T12:40:25;99807.63;;;41.94;25.35
74578;BME280;63173;49.086;33.418;2023-08-01T12:42:50;99814.63;;;42.96;24.21
74578;BME280;63173;49.086;33.418;2023-08-01T12:45:15;99811.00;;;44.03;23.04
74578;BME280;63173;49.086;33.418;2023-08-01T12:47:41;99809.28;;;43.77;23.29
74578;BME280;63173;49.086;33.418;2023-08-01T12:50:07;99801.72;;;42.03;24.90
74578;BME280;63173;49.086;33.418;2023-08-01T12:52:33;99794.63;;;43.98;23.44
74578;BME280;63173;49.086;33.418;2023-08-01T12:54:58;99795.56;;;44.57;22.14